Alexandria, Virginia
Current Conditions -  °F | °C
As of 2:52 AM on Saturday 25 Oct 2014 (Local Time) from KDCA Reporting Station
Clear Clear  
Wind Chill: 55°   Ceiling: Unl
Heat Index: 55°   Visibility: 9mi
Dew Point: 41°   Wind: 3mph
Humidity: 59%   Direction: 30°NNE
Pressure: 29.97"   Gusts: NA
Location:  38.8°N, 77.04°W
Report Text: KDCA 250652Z 03003KT 9SM CLR 13/05 A2997 RMK AO2 SLP147 T01280050 $
Loading
Personal Weather Stations






























Interactive Weather Map New forecast layout! Learn more

10-Day Weather Forecast

Advertisements
Track Severe Weather on mobile